sensor_id;sensor_type;location;lat;lon;timestamp;temperature;humidity
10143;DHT22;5112;54.088;13.446;2023-06-22T00:01:20;17.30;99.90
10143;DHT22;5112;54.088;13.446;2023-06-22T00:11:22;17.10;99.90
10143;DHT22;5112;54.088;13.446;2023-06-22T00:21:26;17.10;99.90
10143;DHT22;5112;54.088;13.446;2023-06-22T00:31:27;17.00;99.90
10143;DHT22;5112;54.088;13.446;2023-06-22T00:41:30;16.90;99.90
10143;DHT22;5112;54.088;13.446;2023-06-22T00:51:32;16.80;99.90
10143;DHT22;5112;54.088;13.446;2023-06-22T01:01:35;16.60;99.90
10143;DHT22;5112;54.088;13.446;2023-06-22T01:11:44;16.50;99.90
10143;DHT22;5112;54.088;13.446;2023-06-22T01:21:49;16.40;99.90
10143;DHT22;5112;54.088;13.446;2023-06-22T01:31:54;16.30;99.90
10143;DHT22;5112;54.088;13.446;2023-06-22T01:41:58;16.20;99.90
10143;DHT22;5112;54.088;13.446;2023-06-22T01:52:01;16.20;99.90
10143;DHT22;5112;54.088;13.446;2023-06-22T02:02:06;16.10;99.90
10143;DHT22;5112;54.088;13.446;2023-06-22T02:12:12;16.20;99.90
10143;DHT22;5112;54.088;13.446;2023-06-22T02:22:14;16.10;99.90
10143;DHT22;5112;54.088;13.446;2023-06-22T02:32:17;16.20;99.90
10143;DHT22;5112;54.088;13.446;2023-06-22T02:42:18;16.10;99.90
10143;DHT22;5112;54.088;13.446;2023-06-22T02:52:23;16.00;99.90
10143;DHT22;5112;54.088;13.446;2023-06-22T03:02:25;16.10;99.90
10143;DHT22;5112;54.088;13.446;2023-06-22T03:12:28;16.10;99.90
10143;DHT22;5112;54.088;13.446;2023-06-22T03:22:30;16.10;99.90
10143;DHT22;5112;54.088;13.446;2023-06-22T03:32:33;16.20;99.90
10143;DHT22;5112;54.088;13.446;2023-06-22T03:42:35;16.20;99.90
10143;DHT22;5112;54.088;13.446;2023-06-22T03:52:38;16.20;99.90
10143;DHT22;5112;54.088;13.446;2023-06-22T04:02:40;16.30;99.90
10143;DHT22;5112;54.088;13.446;2023-06-22T04:12:43;16.30;99.90
10143;DHT22;5112;54.088;13.446;2023-06-22T04:22:45;16.60;99.90
10143;DHT22;5112;54.088;13.446;2023-06-22T04:32:48;16.70;99.90
10143;DHT22;5112;54.088;13.446;2023-06-22T04:42:56;16.70;99.90
10143;DHT22;5112;54.088;13.446;2023-06-22T04:52:59;17.20;99.90
10143;DHT22;5112;54.088;13.446;2023-06-22T05:03:01;17.80;99.90
10143;DHT22;5112;54.088;13.446;2023-06-22T05:13:05;18.40;99.90
10143;DHT22;5112;54.088;13.446;2023-06-22T05:23:07;18.90;99.90
10143;DHT22;5112;54.088;13.446;2023-06-22T05:33:10;19.40;99.90
10143;DHT22;5112;54.088;13.446;2023-06-22T05:43:11;19.40;99.90
10143;DHT22;5112;54.088;13.446;2023-06-22T05:53:15;19.80;99.90
10143;DHT22;5112;54.088;13.446;2023-06-22T06:03:16;20.10;99.90
10143;DHT22;5112;54.088;13.446;2023-06-22T06:13:19;19.80;99.90
10143;DHT22;5112;54.088;13.446;2023-06-22T06:23:21;19.90;99.90
10143;DHT22;5112;54.088;13.446;2023-06-22T06:33:24;20.50;99.90
10143;DHT22;5112;54.088;13.446;2023-06-22T06:43:26;20.70;99.90
10143;DHT22;5112;54.088;13.446;2023-06-22T06:53:29;21.10;99.90
10143;DHT22;5112;54.088;13.446;2023-06-22T07:03:30;21.30;99.90
10143;DHT22;5112;54.088;13.446;2023-06-22T07:13:35;21.40;99.90
10143;DHT22;5112;54.088;13.446;2023-06-22T07:23:36;21.90;99.90
10143;DHT22;5112;54.088;13.446;2023-06-22T07:33:40;22.30;99.90
10143;DHT22;5112;54.088;13.446;2023-06-22T07:43:42;22.50;99.90
10143;DHT22;5112;54.088;13.446;2023-06-22T07:53:45;22.70;99.90
10143;DHT22;5112;54.088;13.446;2023-06-22T08:03:47;22.80;99.90
10143;DHT22;5112;54.088;13.446;2023-06-22T08:13:51;23.10;99.90
10143;DHT22;5112;54.088;13.446;2023-06-22T08:23:52;23.40;99.90
10143;DHT22;5112;54.088;13.446;2023-06-22T08:33:55;23.60;99.90
10143;DHT22;5112;54.088;13.446;2023-06-22T08:43:57;23.60;99.90
10143;DHT22;5112;54.088;13.446;2023-06-22T08:54:01;23.70;99.90
10143;DHT22;5112;54.088;13.446;2023-06-22T09:04:03;24.20;99.90
10143;DHT22;5112;54.088;13.446;2023-06-22T09:14:07;24.10;99.90
10143;DHT22;5112;54.088;13.446;2023-06-22T09:24:09;24.20;99.90
10143;DHT22;5112;54.088;13.446;2023-06-22T09:34:12;24.50;99.90
10143;DHT22;5112;54.088;13.446;2023-06-22T09:44:14;25.00;99.90
10143;DHT22;5112;54.088;13.446;2023-06-22T09:54:17;24.80;99.90
10143;DHT22;5112;54.088;13.446;2023-06-22T10:04:18;24.60;99.90
10143;DHT22;5112;54.088;13.446;2023-06-22T10:14:21;24.80;99.90
10143;DHT22;5112;54.088;13.446;2023-06-22T10:24:24;24.60;99.90
10143;DHT22;5112;54.088;13.446;2023-06-22T10:34:27;24.40;99.90
10143;DHT22;5112;54.088;13.446;2023-06-22T10:44:29;24.90;99.90
10143;DHT22;5112;54.088;13.446;2023-06-22T10:54:33;25.50;99.90
10143;DHT22;5112;54.088;13.446;2023-06-22T11:04:35;25.90;99.90
10143;DHT22;5112;54.088;13.446;2023-06-22T11:14:38;26.50;99.90
10143;DHT22;5112;54.088;13.446;2023-06-22T11:24:40;26.30;99.90
10143;DHT22;5112;54.088;13.446;2023-06-22T11:34:43;26.20;99.90
10143;DHT22;5112;54.088;13.446;2023-06-22T11:44:45;26.10;99.90
10143;DHT22;5112;54.088;13.446;2023-06-22T11:54:48;26.30;99.90
10143;DHT22;5112;54.088;13.446;2023-06-22T12:04:49;26.40;99.90
10143;DHT22;5112;54.088;13.446;2023-06-22T12:14:54;26.60;99.90
10143;DHT22;5112;54.088;13.446;2023-06-22T12:24:55;26.70;99.90
10143;DHT22;5112;54.088;13.446;2023-06-22T12:34:58;26.60;99.90
10143;DHT22;5112;54.088;13.446;2023-06-22T12:45:00;27.20;99.90
10143;DHT22;5112;54.088;13.446;2023-06-22T12:55:03;26.50;99.90
10143;DHT22;5112;54.088;13.446;2023-06-22T13:05:06;26.90;99.90
10143;DHT22;5112;54.088;13.446;2023-06-22T13:15:09;26.80;99.90
10143;DHT22;5112;54.088;13.446;2023-06-22T13:25:11;26.40;99.90
10143;DHT22;5112;54.088;13.446;2023-06-22T13:35:14;26.40;99.90
10143;DHT22;5112;54.088;13.446;2023-06-22T13:45:16;26.20;99.90
10143;DHT22;5112;54.088;13.446;2023-06-22T13:55:21;26.10;99.90
10143;DHT22;5112;54.088;13.446;2023-06-22T14:05:23;25.90;99.90
10143;DHT22;5112;54.088;13.446;2023-06-22T14:15:26;26.10;99.90
10143;DHT22;5112;54.088;13.446;2023-06-22T14:25:28;25.80;99.90
10143;DHT22;5112;54.088;13.446;2023-06-22T14:35:31;25.70;99.90
10143;DHT22;5112;54.088;13.446;2023-06-22T14:45:33;25.90;99.90
10143;DHT22;5112;54.088;13.446;2023-06-22T14:55:36;25.80;99.90
10143;DHT22;5112;54.088;13.446;2023-06-22T15:05:38;25.60;99.90
10143;DHT22;5112;54.088;13.446;2023-06-22T15:15:41;26.00;99.90
10143;DHT22;5112;54.088;13.446;2023-06-22T15:25:43;25.50;99.90
10143;DHT22;5112;54.088;13.446;2023-06-22T15:35:47;25.30;99.90
10143;DHT22;5112;54.088;13.446;2023-06-22T15:45:49;25.30;99.90
10143;DHT22;5112;54.088;13.446;2023-06-22T15:55:52;25.40;99.90
10143;DHT22;5112;54.088;13.446;2023-06-22T16:05:55;25.40;99.90
10143;DHT22;5112;54.088;13.446;2023-06-22T16:15:58;25.20;99.90
10143;DHT22;5112;54.088;13.446;2023-06-22T16:25:59;24.70;99.90
10143;DHT22;5112;54.088;13.446;2023-06-22T16:36:02;24.50;99.90
10143;DHT22;5112;54.088;13.446;2023-06-22T16:46:04;24.10;99.90
10143;DHT22;5112;54.088;13.446;2023-06-22T16:56:07;24.00;99.90
10143;DHT22;5112;54.088;13.446;2023-06-22T17:06:09;24.10;99.90
10143;DHT22;5112;54.088;13.446;2023-06-22T17:16:14;23.70;99.90
10143;DHT22;5112;54.088;13.446;2023-06-22T17:26:16;23.30;99.90
10143;DHT22;5112;54.088;13.446;2023-06-22T17:36:19;23.00;99.90
10143;DHT22;5112;54.088;13.446;2023-06-22T17:46:21;22.80;99.90
10143;DHT22;5112;54.088;13.446;2023-06-22T17:56:24;22.60;99.90
10143;DHT22;5112;54.088;13.446;2023-06-22T18:06:27;22.50;99.90
10143;DHT22;5112;54.088;13.446;2023-06-22T18:16:32;22.40;99.90
10143;DHT22;5112;54.088;13.446;2023-06-22T18:26:36;22.10;99.90
10143;DHT22;5112;54.088;13.446;2023-06-22T18:36:43;22.10;99.90
10143;DHT22;5112;54.088;13.446;2023-06-22T18:46:50;21.90;99.90
10143;DHT22;5112;54.088;13.446;2023-06-22T18:56:55;21.70;99.90
10143;DHT22;5112;54.088;13.446;2023-06-22T19:06:57;21.70;99.90
10143;DHT22;5112;54.088;13.446;2023-06-22T19:17:00;21.50;99.90
10143;DHT22;5112;54.088;13.446;2023-06-22T19:27:02;21.30;99.90
10143;DHT22;5112;54.088;13.446;2023-06-22T19:37:14;21.00;99.90
10143;DHT22;5112;54.088;13.446;2023-06-22T19:47:19;21.00;99.90
10143;DHT22;5112;54.088;13.446;2023-06-22T19:57:22;20.70;99.90
10143;DHT22;5112;54.088;13.446;2023-06-22T20:07:34;20.70;99.90
10143;DHT22;5112;54.088;13.446;2023-06-22T20:17:41;20.50;99.90
10143;DHT22;5112;54.088;13.446;2023-06-22T20:27:48;20.50;99.90
10143;DHT22;5112;54.088;13.446;2023-06-22T20:37:52;20.40;99.90
10143;DHT22;5112;54.088;13.446;2023-06-22T20:47:57;20.40;99.90
10143;DHT22;5112;54.088;13.446;2023-06-22T20:58:00;20.20;99.90
10143;DHT22;5112;54.088;13.446;2023-06-22T21:08:02;20.30;99.90
10143;DHT22;5112;54.088;13.446;2023-06-22T21:18:06;20.20;99.90
10143;DHT22;5112;54.088;13.446;2023-06-22T21:28:07;20.20;99.90
10143;DHT22;5112;54.088;13.446;2023-06-22T21:38:11;20.10;99.90
10143;DHT22;5112;54.088;13.446;2023-06-22T21:48:12;20.10;99.90
10143;DHT22;5112;54.088;13.446;2023-06-22T21:58:15;20.00;99.90
10143;DHT22;5112;54.088;13.446;2023-06-22T22:08:18;19.90;99.90
10143;DHT22;5112;54.088;13.446;2023-06-22T22:18:21;20.00;99.90
10143;DHT22;5112;54.088;13.446;2023-06-22T22:28:23;19.90;99.90
10143;DHT22;5112;54.088;13.446;2023-06-22T22:38:26;20.00;99.90
10143;DHT22;5112;54.088;13.446;2023-06-22T22:48:27;19.70;99.90
10143;DHT22;5112;54.088;13.446;2023-06-22T22:58:32;19.80;99.90
10143;DHT22;5112;54.088;13.446;2023-06-22T23:08:34;19.70;99.90
10143;DHT22;5112;54.088;13.446;2023-06-22T23:18:37;19.50;99.90
10143;DHT22;5112;54.088;13.446;2023-06-22T23:28:39;19.50;99.90
10143;DHT22;5112;54.088;13.446;2023-06-22T23:38:42;19.50;99.90
10143;DHT22;5112;54.088;13.446;2023-06-22T23:48:44;19.50;99.90
10143;DHT22;5112;54.088;13.446;2023-06-22T23:58:49;19.40;99.90
